sensor_id;sensor_type;location;lat;lon;timestamp;temperature;humidity
14877;DHT22;22152;48.158;17.118;2023-03-23T00:01:33;11.20;72.70
14877;DHT22;22152;48.158;17.118;2023-03-23T00:04:16;11.20;72.40
14877;DHT22;22152;48.158;17.118;2023-03-23T00:07:04;11.20;72.40
14877;DHT22;22152;48.158;17.118;2023-03-23T00:09:43;11.20;72.40
14877;DHT22;22152;48.158;17.118;2023-03-23T00:12:32;11.20;72.30
14877;DHT22;22152;48.158;17.118;2023-03-23T00:15:11;11.20;72.30
14877;DHT22;22152;48.158;17.118;2023-03-23T00:17:57;11.20;72.10
14877;DHT22;22152;48.158;17.118;2023-03-23T00:20:41;11.20;72.10
14877;DHT22;22152;48.158;17.118;2023-03-23T00:23:27;11.10;72.00
14877;DHT22;22152;48.158;17.118;2023-03-23T00:26:07;11.00;72.10
14877;DHT22;22152;48.158;17.118;2023-03-23T00:28:54;10.90;71.90
14877;DHT22;22152;48.158;17.118;2023-03-23T00:31:33;10.90;72.20
14877;DHT22;22152;48.158;17.118;2023-03-23T00:34:22;10.80;72.30
14877;DHT22;22152;48.158;17.118;2023-03-23T00:37:04;10.70;72.60
14877;DHT22;22152;48.158;17.118;2023-03-23T00:39:50;10.60;72.60
14877;DHT22;22152;48.158;17.118;2023-03-23T00:42:37;10.60;73.00
14877;DHT22;22152;48.158;17.118;2023-03-23T00:45:31;10.50;73.00
14877;DHT22;22152;48.158;17.118;2023-03-23T00:48:04;10.40;72.20
14877;DHT22;22152;48.158;17.118;2023-03-23T00:50:58;10.30;73.20
14877;DHT22;22152;48.158;17.118;2023-03-23T00:53:33;10.20;73.90
14877;DHT22;22152;48.158;17.118;2023-03-23T00:56:25;10.20;73.90
14877;DHT22;22152;48.158;17.118;2023-03-23T00:58:58;10.10;74.20
14877;DHT22;22152;48.158;17.118;2023-03-23T01:01:51;10.10;74.20
14877;DHT22;22152;48.158;17.118;2023-03-23T01:04:30;10.00;74.60
14877;DHT22;22152;48.158;17.118;2023-03-23T01:07:16;10.00;74.80
14877;DHT22;22152;48.158;17.118;2023-03-23T01:09:57;9.90;76.20
14877;DHT22;22152;48.158;17.118;2023-03-23T01:12:45;9.90;76.10
14877;DHT22;22152;48.158;17.118;2023-03-23T01:15:24;9.80;76.30
14877;DHT22;22152;48.158;17.118;2023-03-23T01:18:10;9.80;76.40
14877;DHT22;22152;48.158;17.118;2023-03-23T01:20:49;9.70;76.70
14877;DHT22;22152;48.158;17.118;2023-03-23T01:23:35;9.70;76.80
14877;DHT22;22152;48.158;17.118;2023-03-23T01:26:26;9.60;77.10
14877;DHT22;22152;48.158;17.118;2023-03-23T01:29:13;9.60;77.10
14877;DHT22;22152;48.158;17.118;2023-03-23T01:31:53;9.60;77.50
14877;DHT22;22152;48.158;17.118;2023-03-23T01:34:39;9.50;77.50
14877;DHT22;22152;48.158;17.118;2023-03-23T01:37:18;9.50;77.70
14877;DHT22;22152;48.158;17.118;2023-03-23T01:40:05;9.50;77.70
14877;DHT22;22152;48.158;17.118;2023-03-23T01:42:52;9.40;78.00
14877;DHT22;22152;48.158;17.118;2023-03-23T01:45:45;9.40;78.10
14877;DHT22;22152;48.158;17.118;2023-03-23T01:51:17;9.40;78.10
14877;DHT22;22152;48.158;17.118;2023-03-23T01:53:55;9.30;78.30
14877;DHT22;22152;48.158;17.118;2023-03-23T01:56:55;9.30;78.50
14877;DHT22;22152;48.158;17.118;2023-03-23T01:59:31;9.20;78.60
14877;DHT22;22152;48.158;17.118;2023-03-23T02:02:30;9.20;78.80
14877;DHT22;22152;48.158;17.118;2023-03-23T02:05:15;9.20;79.00
14877;DHT22;22152;48.158;17.118;2023-03-23T02:08:14;9.20;79.20
14877;DHT22;22152;48.158;17.118;2023-03-23T02:10:54;9.10;79.40
14877;DHT22;22152;48.158;17.118;2023-03-23T02:13:40;9.10;79.50
14877;DHT22;22152;48.158;17.118;2023-03-23T02:23:02;9.00;80.40
14877;DHT22;22152;48.158;17.118;2023-03-23T02:25:58;8.90;79.70
14877;DHT22;22152;48.158;17.118;2023-03-23T02:29:11;8.90;79.90
14877;DHT22;22152;48.158;17.118;2023-03-23T02:35:39;8.80;80.10
14877;DHT22;22152;48.158;17.118;2023-03-23T02:38:33;8.80;80.30
14877;DHT22;22152;48.158;17.118;2023-03-23T02:41:21;8.80;80.80
14877;DHT22;22152;48.158;17.118;2023-03-23T02:44:09;8.80;80.80
14877;DHT22;22152;48.158;17.118;2023-03-23T02:47:08;8.80;80.90
14877;DHT22;22152;48.158;17.118;2023-03-23T02:49:44;8.70;80.80
14877;DHT22;22152;48.158;17.118;2023-03-23T02:52:40;8.70;80.80
14877;DHT22;22152;48.158;17.118;2023-03-23T02:55:14;8.70;81.00
14877;DHT22;22152;48.158;17.118;2023-03-23T02:58:11;8.70;81.10
14877;DHT22;22152;48.158;17.118;2023-03-23T03:00:45;8.60;81.30
14877;DHT22;22152;48.158;17.118;2023-03-23T03:03:38;8.60;81.20
14877;DHT22;22152;48.158;17.118;2023-03-23T03:06:33;8.60;81.60
14877;DHT22;22152;48.158;17.118;2023-03-23T03:09:34;8.60;81.70
14877;DHT22;22152;48.158;17.118;2023-03-23T03:12:30;8.60;81.60
14877;DHT22;22152;48.158;17.118;2023-03-23T03:15:40;8.60;81.40
14877;DHT22;22152;48.158;17.118;2023-03-23T03:18:30;8.60;81.80
14877;DHT22;22152;48.158;17.118;2023-03-23T03:21:19;8.60;81.90
14877;DHT22;22152;48.158;17.118;2023-03-23T03:24:06;8.60;82.00
14877;DHT22;22152;48.158;17.118;2023-03-23T03:26:58;8.60;82.10
14877;DHT22;22152;48.158;17.118;2023-03-23T03:29:51;8.60;82.10
14877;DHT22;22152;48.158;17.118;2023-03-23T03:32:50;8.60;82.00
14877;DHT22;22152;48.158;17.118;2023-03-23T03:35:36;8.60;82.00
14877;DHT22;22152;48.158;17.118;2023-03-23T03:38:23;8.50;82.20
14877;DHT22;22152;48.158;17.118;2023-03-23T03:41:02;8.50;82.10
14877;DHT22;22152;48.158;17.118;2023-03-23T03:43:48;8.60;82.00
14877;DHT22;22152;48.158;17.118;2023-03-23T03:46:41;8.60;81.90
14877;DHT22;22152;48.158;17.118;2023-03-23T03:49:13;8.60;82.00
14877;DHT22;22152;48.158;17.118;2023-03-23T03:52:08;8.60;81.70
14877;DHT22;22152;48.158;17.118;2023-03-23T03:54:43;8.50;81.70
14877;DHT22;22152;48.158;17.118;2023-03-23T03:57:37;8.50;81.90
14877;DHT22;22152;48.158;17.118;2023-03-23T04:00:32;8.50;82.10
14877;DHT22;22152;48.158;17.118;2023-03-23T04:03:26;8.50;81.80
14877;DHT22;22152;48.158;17.118;2023-03-23T04:06:10;8.50;81.90
14877;DHT22;22152;48.158;17.118;2023-03-23T04:09:05;8.40;81.90
14877;DHT22;22152;48.158;17.118;2023-03-23T04:11:37;8.40;82.10
14877;DHT22;22152;48.158;17.118;2023-03-23T04:14:48;8.40;82.20
14877;DHT22;22152;48.158;17.118;2023-03-23T04:17:22;8.30;82.00
14877;DHT22;22152;48.158;17.118;2023-03-23T04:20:16;8.30;82.10
14877;DHT22;22152;48.158;17.118;2023-03-23T04:22:50;8.30;82.40
14877;DHT22;22152;48.158;17.118;2023-03-23T04:25:48;8.30;82.40
14877;DHT22;22152;48.158;17.118;2023-03-23T04:28:22;8.40;82.60
14877;DHT22;22152;48.158;17.118;2023-03-23T04:31:39;8.40;82.60
14877;DHT22;22152;48.158;17.118;2023-03-23T04:34:24;8.40;82.70
14877;DHT22;22152;48.158;17.118;2023-03-23T04:37:18;8.40;83.10
14877;DHT22;22152;48.158;17.118;2023-03-23T04:39:51;8.40;82.30
14877;DHT22;22152;48.158;17.118;2023-03-23T04:42:47;8.40;82.20
14877;DHT22;22152;48.158;17.118;2023-03-23T04:46:03;8.50;82.30
14877;DHT22;22152;48.158;17.118;2023-03-23T04:48:40;8.40;82.40
14877;DHT22;22152;48.158;17.118;2023-03-23T04:51:37;8.50;82.50
14877;DHT22;22152;48.158;17.118;2023-03-23T04:54:35;8.60;82.60
14877;DHT22;22152;48.158;17.118;2023-03-23T04:57:28;8.60;82.70
14877;DHT22;22152;48.158;17.118;2023-03-23T05:00:24;8.60;82.50
14877;DHT22;22152;48.158;17.118;2023-03-23T05:03:18;8.70;82.60
14877;DHT22;22152;48.158;17.118;2023-03-23T05:05:53;8.90;82.60
14877;DHT22;22152;48.158;17.118;2023-03-23T05:08:48;8.90;82.40
14877;DHT22;22152;48.158;17.118;2023-03-23T05:11:28;9.00;82.20
14877;DHT22;22152;48.158;17.118;2023-03-23T05:14:14;9.20;81.90
14877;DHT22;22152;48.158;17.118;2023-03-23T05:17:01;9.30;81.60
14877;DHT22;22152;48.158;17.118;2023-03-23T05:19:47;9.50;81.10
14877;DHT22;22152;48.158;17.118;2023-03-23T05:22:55;9.70;80.20
14877;DHT22;22152;48.158;17.118;2023-03-23T05:25:41;9.90;78.90
14877;DHT22;22152;48.158;17.118;2023-03-23T05:28:24;10.10;77.40
14877;DHT22;22152;48.158;17.118;2023-03-23T05:31:19;10.30;76.50
14877;DHT22;22152;48.158;17.118;2023-03-23T05:33:59;10.40;75.70
14877;DHT22;22152;48.158;17.118;2023-03-23T05:36:52;10.60;74.60
14877;DHT22;22152;48.158;17.118;2023-03-23T05:39:40;10.80;73.70
14877;DHT22;22152;48.158;17.118;2023-03-23T05:42:43;10.90;73.00
14877;DHT22;22152;48.158;17.118;2023-03-23T05:45:37;11.10;72.50
14877;DHT22;22152;48.158;17.118;2023-03-23T05:48:30;11.30;72.10
14877;DHT22;22152;48.158;17.118;2023-03-23T05:51:28;11.50;71.40
14877;DHT22;22152;48.158;17.118;2023-03-23T05:54:01;11.60;70.20
14877;DHT22;22152;48.158;17.118;2023-03-23T05:56:56;11.70;69.30
14877;DHT22;22152;48.158;17.118;2023-03-23T06:00:01;11.70;67.40
14877;DHT22;22152;48.158;17.118;2023-03-23T06:03:05;11.70;67.00
14877;DHT22;22152;48.158;17.118;2023-03-23T06:05:45;11.80;66.10
14877;DHT22;22152;48.158;17.118;2023-03-23T06:08:46;12.00;66.80
14877;DHT22;22152;48.158;17.118;2023-03-23T06:11:40;12.30;66.70
14877;DHT22;22152;48.158;17.118;2023-03-23T06:14:36;12.50;65.50
14877;DHT22;22152;48.158;17.118;2023-03-23T06:17:16;12.80;63.60
14877;DHT22;22152;48.158;17.118;2023-03-23T06:20:04;13.10;62.90
14877;DHT22;22152;48.158;17.118;2023-03-23T06:22:49;13.40;60.80
14877;DHT22;22152;48.158;17.118;2023-03-23T06:25:37;13.80;60.30
14877;DHT22;22152;48.158;17.118;2023-03-23T06:28:18;14.00;58.80
14877;DHT22;22152;48.158;17.118;2023-03-23T06:31:05;14.40;59.00
14877;DHT22;22152;48.158;17.118;2023-03-23T06:33:45;14.70;57.20
14877;DHT22;22152;48.158;17.118;2023-03-23T06:36:31;14.90;56.50
14877;DHT22;22152;48.158;17.118;2023-03-23T06:39:20;15.10;55.30
14877;DHT22;22152;48.158;17.118;2023-03-23T06:42:17;15.20;54.70
14877;DHT22;22152;48.158;17.118;2023-03-23T06:45:18;15.40;54.70
14877;DHT22;22152;48.158;17.118;2023-03-23T06:48:46;15.50;54.10
14877;DHT22;22152;48.158;17.118;2023-03-23T06:51:30;15.60;53.20
14877;DHT22;22152;48.158;17.118;2023-03-23T06:54:23;15.60;53.30
14877;DHT22;22152;48.158;17.118;2023-03-23T06:56:58;15.70;53.20
14877;DHT22;22152;48.158;17.118;2023-03-23T06:59:51;15.90;53.00
14877;DHT22;22152;48.158;17.118;2023-03-23T07:02:24;15.80;52.40
14877;DHT22;22152;48.158;17.118;2023-03-23T07:05:17;15.70;52.20
14877;DHT22;22152;48.158;17.118;2023-03-23T07:07:50;15.70;52.40
14877;DHT22;22152;48.158;17.118;2023-03-23T07:10:51;15.40;52.30
14877;DHT22;22152;48.158;17.118;2023-03-23T07:13:33;15.30;52.70
14877;DHT22;22152;48.158;17.118;2023-03-23T07:16:20;15.30;52.90
14877;DHT22;22152;48.158;17.118;2023-03-23T07:19:00;15.30;52.50
14877;DHT22;22152;48.158;17.118;2023-03-23T07:21:47;15.50;52.50
14877;DHT22;22152;48.158;17.118;2023-03-23T07:24:28;15.70;51.90
14877;DHT22;22152;48.158;17.118;2023-03-23T07:27:26;15.90;51.70
14877;DHT22;22152;48.158;17.118;2023-03-23T07:30:08;16.10;51.60
14877;DHT22;22152;48.158;17.118;2023-03-23T07:32:54;16.20;51.70
14877;DHT22;22152;48.158;17.118;2023-03-23T07:35:35;16.40;51.10
14877;DHT22;22152;48.158;17.118;2023-03-23T07:38:23;16.40;50.60
14877;DHT22;22152;48.158;17.118;2023-03-23T07:41:06;16.40;50.50
14877;DHT22;22152;48.158;17.118;2023-03-23T07:43:53;16.30;50.40
14877;DHT22;22152;48.158;17.118;2023-03-23T07:46:48;16.50;50.20
14877;DHT22;22152;48.158;17.118;2023-03-23T07:49:28;16.50;49.70
14877;DHT22;22152;48.158;17.118;2023-03-23T07:52:29;16.50;49.60
14877;DHT22;22152;48.158;17.118;2023-03-23T07:55:05;16.60;49.60
14877;DHT22;22152;48.158;17.118;2023-03-23T07:58:13;16.70;49.80
14877;DHT22;22152;48.158;17.118;2023-03-23T08:00:54;16.90;49.50
14877;DHT22;22152;48.158;17.118;2023-03-23T08:03:47;16.70;48.90
14877;DHT22;22152;48.158;17.118;2023-03-23T08:06:52;16.40;49.40
14877;DHT22;22152;48.158;17.118;2023-03-23T08:10:09;16.20;50.30
14877;DHT22;22152;48.158;17.118;2023-03-23T08:13:03;16.10;49.80
14877;DHT22;22152;48.158;17.118;2023-03-23T08:16:16;16.10;50.10
14877;DHT22;22152;48.158;17.118;2023-03-23T08:19:14;16.40;50.50
14877;DHT22;22152;48.158;17.118;2023-03-23T08:22:30;16.50;49.40
14877;DHT22;22152;48.158;17.118;2023-03-23T08:25:25;16.70;49.10
14877;DHT22;22152;48.158;17.118;2023-03-23T08:28:33;17.10;49.30
14877;DHT22;22152;48.158;17.118;2023-03-23T08:31:35;17.30;48.30
14877;DHT22;22152;48.158;17.118;2023-03-23T08:34:49;17.50;48.20
14877;DHT22;22152;48.158;17.118;2023-03-23T08:37:42;17.50;48.00
14877;DHT22;22152;48.158;17.118;2023-03-23T08:40:59;17.70;48.00
14877;DHT22;22152;48.158;17.118;2023-03-23T08:43:51;17.80;47.50
14877;DHT22;22152;48.158;17.118;2023-03-23T08:46:58;18.00;47.50
14877;DHT22;22152;48.158;17.118;2023-03-23T08:49:50;18.20;47.00
14877;DHT22;22152;48.158;17.118;2023-03-23T08:53:02;18.30;46.60
14877;DHT22;22152;48.158;17.118;2023-03-23T08:55:53;18.40;46.80
14877;DHT22;22152;48.158;17.118;2023-03-23T08:59:06;18.50;46.40
14877;DHT22;22152;48.158;17.118;2023-03-23T09:02:01;18.50;46.40
14877;DHT22;22152;48.158;17.118;2023-03-23T09:05:05;18.40;46.40
14877;DHT22;22152;48.158;17.118;2023-03-23T09:07:59;18.40;46.30
14877;DHT22;22152;48.158;17.118;2023-03-23T09:10:53;18.10;46.50
14877;DHT22;22152;48.158;17.118;2023-03-23T09:13:28;18.10;46.90
14877;DHT22;22152;48.158;17.118;2023-03-23T09:16:22;18.10;46.80
14877;DHT22;22152;48.158;17.118;2023-03-23T09:18:54;17.90;46.90
14877;DHT22;22152;48.158;17.118;2023-03-23T09:21:48;17.70;47.30
14877;DHT22;22152;48.158;17.118;2023-03-23T09:24:23;17.70;47.60
14877;DHT22;22152;48.158;17.118;2023-03-23T09:27:17;17.70;47.80
14877;DHT22;22152;48.158;17.118;2023-03-23T09:29:51;17.60;48.10
14877;DHT22;22152;48.158;17.118;2023-03-23T09:32:44;17.50;48.30
14877;DHT22;22152;48.158;17.118;2023-03-23T09:35:16;17.40;48.40
14877;DHT22;22152;48.158;17.118;2023-03-23T09:38:10;17.30;48.70
14877;DHT22;22152;48.158;17.118;2023-03-23T09:41:06;17.30;48.90
14877;DHT22;22152;48.158;17.118;2023-03-23T09:44:51;17.00;49.20
14877;DHT22;22152;48.158;17.118;2023-03-23T09:50:41;16.50;50.30
14877;DHT22;22152;48.158;17.118;2023-03-23T09:53:39;16.50;50.50
14877;DHT22;22152;48.158;17.118;2023-03-23T09:56:14;16.40;50.80
14877;DHT22;22152;48.158;17.118;2023-03-23T09:59:13;16.40;50.70
14877;DHT22;22152;48.158;17.118;2023-03-23T10:02:18;16.40;50.90
14877;DHT22;22152;48.158;17.118;2023-03-23T10:05:25;16.40;51.20
14877;DHT22;22152;48.158;17.118;2023-03-23T10:08:13;16.40;51.50
14877;DHT22;22152;48.158;17.118;2023-03-23T10:15:16;16.50;51.70
14877;DHT22;22152;48.158;17.118;2023-03-23T10:18:36;16.60;51.60
14877;DHT22;22152;48.158;17.118;2023-03-23T10:21:13;16.70;51.40
14877;DHT22;22152;48.158;17.118;2023-03-23T10:24:12;16.70;51.20
14877;DHT22;22152;48.158;17.118;2023-03-23T10:27:06;16.70;51.40
14877;DHT22;22152;48.158;17.118;2023-03-23T10:36:23;17.00;50.90
14877;DHT22;22152;48.158;17.118;2023-03-23T10:39:15;17.00;50.90
14877;DHT22;22152;48.158;17.118;2023-03-23T10:42:11;17.10;50.80
14877;DHT22;22152;48.158;17.118;2023-03-23T10:44:43;17.20;50.80
14877;DHT22;22152;48.158;17.118;2023-03-23T10:47:38;17.30;50.80
14877;DHT22;22152;48.158;17.118;2023-03-23T10:50:18;17.40;50.60
14877;DHT22;22152;48.158;17.118;2023-03-23T10:54:04;17.50;50.60
14877;DHT22;22152;48.158;17.118;2023-03-23T10:56:25;17.60;50.50
14877;DHT22;22152;48.158;17.118;2023-03-23T10:59:28;17.70;50.40
14877;DHT22;22152;48.158;17.118;2023-03-23T11:02:03;17.80;50.20
14877;DHT22;22152;48.158;17.118;2023-03-23T11:05:23;17.70;50.10
14877;DHT22;22152;48.158;17.118;2023-03-23T11:07:59;17.80;50.00
14877;DHT22;22152;48.158;17.118;2023-03-23T11:10:56;17.80;50.20
14877;DHT22;22152;48.158;17.118;2023-03-23T11:13:52;17.80;50.20
14877;DHT22;22152;48.158;17.118;2023-03-23T11:17:23;17.80;50.40
14877;DHT22;22152;48.158;17.118;2023-03-23T11:20:12;17.90;50.20
14877;DHT22;22152;48.158;17.118;2023-03-23T11:22:59;17.90;50.20
14877;DHT22;22152;48.158;17.118;2023-03-23T11:26:16;18.00;50.40
14877;DHT22;22152;48.158;17.118;2023-03-23T11:29:14;18.10;50.20
14877;DHT22;22152;48.158;17.118;2023-03-23T11:34:48;18.10;50.20
14877;DHT22;22152;48.158;17.118;2023-03-23T11:40:24;18.20;49.90
14877;DHT22;22152;48.158;17.118;2023-03-23T11:43:13;18.20;50.00
14877;DHT22;22152;48.158;17.118;2023-03-23T11:46:29;18.30;50.10
14877;DHT22;22152;48.158;17.118;2023-03-23T11:49:20;18.50;49.80
14877;DHT22;22152;48.158;17.118;2023-03-23T11:53:09;18.50;49.70
14877;DHT22;22152;48.158;17.118;2023-03-23T11:58:42;18.70;49.60
14877;DHT22;22152;48.158;17.118;2023-03-23T12:04:57;19.10;49.00
14877;DHT22;22152;48.158;17.118;2023-03-23T12:14:37;19.50;48.40
14877;DHT22;22152;48.158;17.118;2023-03-23T12:18:40;19.70;48.20
14877;DHT22;22152;48.158;17.118;2023-03-23T12:21:44;20.00;47.90
14877;DHT22;22152;48.158;17.118;2023-03-23T12:33:48;21.10;47.00
14877;DHT22;22152;48.158;17.118;2023-03-23T12:36:52;21.40;45.80
14877;DHT22;22152;48.158;17.118;2023-03-23T12:43:05;21.60;45.00
14877;DHT22;22152;48.158;17.118;2023-03-23T12:49:56;21.60;44.90
14877;DHT22;22152;48.158;17.118;2023-03-23T12:52:57;21.60;44.80
14877;DHT22;22152;48.158;17.118;2023-03-23T12:56:40;21.60;45.00
14877;DHT22;22152;48.158;17.118;2023-03-23T12:59:41;21.70;45.00
14877;DHT22;22152;48.158;17.118;2023-03-23T13:03:25;21.70;45.00
14877;DHT22;22152;48.158;17.118;2023-03-23T13:06:42;21.80;45.00
14877;DHT22;22152;48.158;17.118;2023-03-23T13:09:29;21.90;44.80
14877;DHT22;22152;48.158;17.118;2023-03-23T13:12:15;22.00;44.50
14877;DHT22;22152;48.158;17.118;2023-03-23T13:25:01;22.00;44.20
14877;DHT22;22152;48.158;17.118;2023-03-23T13:27:59;22.00;44.10
14877;DHT22;22152;48.158;17.118;2023-03-23T13:30:33;21.80;44.20
14877;DHT22;22152;48.158;17.118;2023-03-23T13:33:29;21.70;44.50
14877;DHT22;22152;48.158;17.118;2023-03-23T13:36:10;21.60;44.70
14877;DHT22;22152;48.158;17.118;2023-03-23T13:39:16;21.60;44.90
14877;DHT22;22152;48.158;17.118;2023-03-23T13:45:07;21.40;44.80
14877;DHT22;22152;48.158;17.118;2023-03-23T13:50:59;21.00;46.30
14877;DHT22;22152;48.158;17.118;2023-03-23T13:53:53;20.90;45.60
14877;DHT22;22152;48.158;17.118;2023-03-23T13:56:42;20.90;45.80
14877;DHT22;22152;48.158;17.118;2023-03-23T13:59:48;20.80;45.90
14877;DHT22;22152;48.158;17.118;2023-03-23T14:02:39;20.70;46.00
14877;DHT22;22152;48.158;17.118;2023-03-23T14:05:42;20.60;46.10
14877;DHT22;22152;48.158;17.118;2023-03-23T14:08:21;20.50;46.20
14877;DHT22;22152;48.158;17.118;2023-03-23T14:11:23;20.50;46.30
14877;DHT22;22152;48.158;17.118;2023-03-23T14:14:04;20.60;46.50
14877;DHT22;22152;48.158;17.118;2023-03-23T14:19:40;20.60;47.00
14877;DHT22;22152;48.158;17.118;2023-03-23T14:22:44;20.60;46.30
14877;DHT22;22152;48.158;17.118;2023-03-23T14:25:18;20.60;46.40
14877;DHT22;22152;48.158;17.118;2023-03-23T14:28:21;20.50;46.50
14877;DHT22;22152;48.158;17.118;2023-03-23T14:30:54;20.60;46.60
14877;DHT22;22152;48.158;17.118;2023-03-23T14:33:48;20.60;46.50
14877;DHT22;22152;48.158;17.118;2023-03-23T14:36:24;20.50;46.50
14877;DHT22;22152;48.158;17.118;2023-03-23T14:42:00;20.50;46.70
14877;DHT22;22152;48.158;17.118;2023-03-23T14:44:55;20.60;46.90
14877;DHT22;22152;48.158;17.118;2023-03-23T14:47:53;20.70;46.90
14877;DHT22;22152;48.158;17.118;2023-03-23T14:50:39;20.90;46.70
14877;DHT22;22152;48.158;17.118;2023-03-23T14:53:38;21.00;46.40
14877;DHT22;22152;48.158;17.118;2023-03-23T14:56:15;21.10;46.10
14877;DHT22;22152;48.158;17.118;2023-03-23T14:59:10;21.20;46.00
14877;DHT22;22152;48.158;17.118;2023-03-23T15:01:43;21.30;45.80
14877;DHT22;22152;48.158;17.118;2023-03-23T15:04:39;21.40;45.70
14877;DHT22;22152;48.158;17.118;2023-03-23T15:07:12;21.50;45.60
14877;DHT22;22152;48.158;17.118;2023-03-23T15:10:08;21.50;45.60
14877;DHT22;22152;48.158;17.118;2023-03-23T15:12:46;21.40;45.70
14877;DHT22;22152;48.158;17.118;2023-03-23T15:15:43;21.40;46.00
14877;DHT22;22152;48.158;17.118;2023-03-23T15:18:30;21.20;46.10
14877;DHT22;22152;48.158;17.118;2023-03-23T15:24:39;20.90;46.30
14877;DHT22;22152;48.158;17.118;2023-03-23T15:27:33;20.70;46.30
14877;DHT22;22152;48.158;17.118;2023-03-23T15:33:10;20.50;46.70
14877;DHT22;22152;48.158;17.118;2023-03-23T15:35:51;20.40;46.70
14877;DHT22;22152;48.158;17.118;2023-03-23T15:38:37;20.30;47.00
14877;DHT22;22152;48.158;17.118;2023-03-23T15:41:25;20.30;47.20
14877;DHT22;22152;48.158;17.118;2023-03-23T15:44:24;20.30;47.40
14877;DHT22;22152;48.158;17.118;2023-03-23T15:47:19;20.20;47.50
14877;DHT22;22152;48.158;17.118;2023-03-23T15:50:08;20.10;47.40
14877;DHT22;22152;48.158;17.118;2023-03-23T15:53:31;20.10;47.60
14877;DHT22;22152;48.158;17.118;2023-03-23T15:56:07;20.00;47.90
14877;DHT22;22152;48.158;17.118;2023-03-23T15:59:01;19.80;48.00
14877;DHT22;22152;48.158;17.118;2023-03-23T16:01:36;19.80;48.30
14877;DHT22;22152;48.158;17.118;2023-03-23T16:04:32;19.80;48.50
14877;DHT22;22152;48.158;17.118;2023-03-23T16:07:05;19.70;48.80
14877;DHT22;22152;48.158;17.118;2023-03-23T16:09:58;19.60;49.00
14877;DHT22;22152;48.158;17.118;2023-03-23T16:12:31;19.60;49.30
14877;DHT22;22152;48.158;17.118;2023-03-23T16:15:23;19.60;49.30
14877;DHT22;22152;48.158;17.118;2023-03-23T16:17:56;19.50;49.50
14877;DHT22;22152;48.158;17.118;2023-03-23T16:20:50;19.50;49.60
14877;DHT22;22152;48.158;17.118;2023-03-23T16:23:22;19.50;50.00
14877;DHT22;22152;48.158;17.118;2023-03-23T16:26:16;19.40;50.10
14877;DHT22;22152;48.158;17.118;2023-03-23T16:28:49;19.30;50.40
14877;DHT22;22152;48.158;17.118;2023-03-23T16:31:41;19.30;50.60
14877;DHT22;22152;48.158;17.118;2023-03-23T16:34:14;19.20;51.00
14877;DHT22;22152;48.158;17.118;2023-03-23T16:37:09;19.00;51.10
14877;DHT22;22152;48.158;17.118;2023-03-23T16:39:43;18.90;51.80
14877;DHT22;22152;48.158;17.118;2023-03-23T16:42:35;18.80;52.10
14877;DHT22;22152;48.158;17.118;2023-03-23T16:45:08;18.60;52.70
14877;DHT22;22152;48.158;17.118;2023-03-23T16:48:01;18.50;53.10
14877;DHT22;22152;48.158;17.118;2023-03-23T16:50:35;18.40;53.70
14877;DHT22;22152;48.158;17.118;2023-03-23T16:53:28;18.20;54.00
14877;DHT22;22152;48.158;17.118;2023-03-23T16:56:01;18.00;54.40
14877;DHT22;22152;48.158;17.118;2023-03-23T16:58:54;17.80;54.70
14877;DHT22;22152;48.158;17.118;2023-03-23T17:01:27;17.70;55.10
14877;DHT22;22152;48.158;17.118;2023-03-23T17:04:19;17.50;55.40
14877;DHT22;22152;48.158;17.118;2023-03-23T17:06:52;17.30;55.90
14877;DHT22;22152;48.158;17.118;2023-03-23T17:09:47;17.20;56.10
14877;DHT22;22152;48.158;17.118;2023-03-23T17:12:20;17.10;56.40
14877;DHT22;22152;48.158;17.118;2023-03-23T17:15:13;17.00;56.60
14877;DHT22;22152;48.158;17.118;2023-03-23T17:17:46;16.90;57.00
14877;DHT22;22152;48.158;17.118;2023-03-23T17:20:41;16.80;57.20
14877;DHT22;22152;48.158;17.118;2023-03-23T17:23:14;16.70;57.60
14877;DHT22;22152;48.158;17.118;2023-03-23T17:26:06;16.60;57.70
14877;DHT22;22152;48.158;17.118;2023-03-23T17:28:46;16.50;57.90
14877;DHT22;22152;48.158;17.118;2023-03-23T17:31:31;16.50;58.20
14877;DHT22;22152;48.158;17.118;2023-03-23T17:34:10;16.40;58.60
14877;DHT22;22152;48.158;17.118;2023-03-23T17:36:56;16.30;58.80
14877;DHT22;22152;48.158;17.118;2023-03-23T17:39:35;16.20;59.00
14877;DHT22;22152;48.158;17.118;2023-03-23T17:42:21;16.10;59.00
14877;DHT22;22152;48.158;17.118;2023-03-23T17:45:08;16.10;59.40
14877;DHT22;22152;48.158;17.118;2023-03-23T17:48:01;16.00;59.60
14877;DHT22;22152;48.158;17.118;2023-03-23T17:50:38;15.90;59.70
14877;DHT22;22152;48.158;17.118;2023-03-23T17:53:32;15.90;59.90
14877;DHT22;22152;48.158;17.118;2023-03-23T17:56:07;15.80;60.10
14877;DHT22;22152;48.158;17.118;2023-03-23T17:59:00;15.70;60.30
14877;DHT22;22152;48.158;17.118;2023-03-23T18:01:33;15.70;60.80
14877;DHT22;22152;48.158;17.118;2023-03-23T18:04:26;15.60;60.80
14877;DHT22;22152;48.158;17.118;2023-03-23T18:06:59;15.60;61.00
14877;DHT22;22152;48.158;17.118;2023-03-23T18:09:57;15.50;60.90
14877;DHT22;22152;48.158;17.118;2023-03-23T18:12:29;15.50;61.40
14877;DHT22;22152;48.158;17.118;2023-03-23T18:15:22;15.40;61.60
14877;DHT22;22152;48.158;17.118;2023-03-23T18:17:55;15.30;62.00
14877;DHT22;22152;48.158;17.118;2023-03-23T18:20:56;15.20;62.10
14877;DHT22;22152;48.158;17.118;2023-03-23T18:23:31;15.20;62.60
14877;DHT22;22152;48.158;17.118;2023-03-23T18:26:24;15.10;62.70
14877;DHT22;22152;48.158;17.118;2023-03-23T18:29:03;15.10;63.00
14877;DHT22;22152;48.158;17.118;2023-03-23T18:31:49;15.10;63.90
14877;DHT22;22152;48.158;17.118;2023-03-23T18:34:28;15.10;63.40
14877;DHT22;22152;48.158;17.118;2023-03-23T18:37:16;15.10;63.50
14877;DHT22;22152;48.158;17.118;2023-03-23T18:39:55;15.10;63.80
14877;DHT22;22152;48.158;17.118;2023-03-23T18:42:42;15.00;63.70
14877;DHT22;22152;48.158;17.118;2023-03-23T18:45:29;15.00;63.90
14877;DHT22;22152;48.158;17.118;2023-03-23T18:48:23;15.00;64.10
14877;DHT22;22152;48.158;17.118;2023-03-23T18:50:58;14.90;64.20
14877;DHT22;22152;48.158;17.118;2023-03-23T18:53:51;14.80;64.20
14877;DHT22;22152;48.158;17.118;2023-03-23T18:56:24;14.80;64.80
14877;DHT22;22152;48.158;17.118;2023-03-23T18:59:16;14.70;64.90
14877;DHT22;22152;48.158;17.118;2023-03-23T19:01:49;14.70;65.30
14877;DHT22;22152;48.158;17.118;2023-03-23T19:04:43;14.60;65.20
14877;DHT22;22152;48.158;17.118;2023-03-23T19:07:17;14.60;65.60
14877;DHT22;22152;48.158;17.118;2023-03-23T19:10:10;14.50;65.70
14877;DHT22;22152;48.158;17.118;2023-03-23T19:12:42;14.50;65.90